Time;durP1;ratioP1;P1;durP2;ratioP2;P2;SDS_P1;SDS_P2;PMS_P1;PMS_P2;Temp;Humidity;BMP_temperature;BMP_pressure;BME280_temperature;BME280_humidity;BME280_pressure;Samples;Min_cycle;Max_cycle;Signal;HPM_P1;HPM_P2
2021/04/11 00:01:39;;;;;;;6.80;3.13;;;;;;;;;;5018161;28;20026;-75
2021/04/11 00:04:05;;;;;;;8.32;3.30;;;;;;;;;;5011190;28;20030;-75
2021/04/11 00:06:31;;;;;;;6.78;3.00;;;;;;;;;;4993540;28;20117;-76
2021/04/11 00:08:56;;;;;;;5.72;2.78;;;;;;;;;;5021680;28;20163;-76
2021/04/11 00:11:23;;;;;;;5.28;2.60;;;;;;;;;;5025630;28;20037;-76
2021/04/11 00:13:54;;;;;;;5.78;2.85;;;;;;;;;;5004482;28;20124;-76
2021/04/11 00:16:20;;;;;;;8.48;2.70;;;;;;;;;;5017222;28;20061;-75
2021/04/11 00:18:45;;;;;;;8.00;3.22;;;;;;;;;;5028529;28;20057;-75
2021/04/11 00:21:11;;;;;;;5.63;2.50;;;;;;;;;;5031554;28;20036;-75
2021/04/11 00:23:37;;;;;;;5.70;2.75;;;;;;;;;;5029819;28;21748;-75
2021/04/11 00:26:03;;;;;;;6.93;2.55;;;;;;;;;;5011880;28;20073;-75
2021/04/11 00:28:29;;;;;;;5.22;2.65;;;;;;;;;;5016536;28;20033;-76
2021/04/11 00:30:54;;;;;;;7.95;3.40;;;;;;;;;;5026644;28;20497;-77
2021/04/11 00:33:23;;;;;;;5.00;2.50;;;;;;;;;;5015257;28;20029;-76
2021/04/11 00:35:57;;;;;;;4.38;2.50;;;;;;;;;;5015434;28;20030;-75
2021/04/11 00:38:23;;;;;;;6.60;2.60;;;;;;;;;;5021375;28;20044;-77
2021/04/11 00:40:48;;;;;;;5.50;2.60;;;;;;;;;;5026175;28;20025;-76
2021/04/11 00:43:17;;;;;;;5.15;2.75;;;;;;;;;;5031646;28;20049;-76
2021/04/11 00:46:09;;;;;;;4.32;2.72;;;;;;;;;;5014855;28;20513;-75
2021/04/11 00:48:35;;;;;;;6.05;2.53;;;;;;;;;;5014257;28;20451;-76
2021/04/11 00:51:14;;;;;;;6.35;2.90;;;;;;;;;;5022872;28;20030;-75
2021/04/11 00:53:39;;;;;;;7.10;2.85;;;;;;;;;;5014480;28;20494;-76
2021/04/11 00:56:07;;;;;;;8.15;2.90;;;;;;;;;;5024056;28;20029;-75
2021/04/11 00:58:33;;;;;;;3.30;2.40;;;;;;;;;;5017473;28;20127;-76
2021/04/11 01:00:59;;;;;;;4.80;2.70;;;;;;;;;;5027428;28;20444;-75
2021/04/11 01:03:28;;;;;;;7.75;2.92;;;;;;;;;;5023861;28;20049;-74
2021/04/11 01:05:54;;;;;;;6.63;2.72;;;;;;;;;;5030004;28;20056;-78
2021/04/11 01:08:24;;;;;;;6.03;2.78;;;;;;;;;;5032503;28;20033;-75
2021/04/11 01:10:49;;;;;;;4.43;2.40;;;;;;;;;;5017773;28;20555;-77
2021/04/11 01:13:16;;;;;;;4.72;2.60;;;;;;;;;;5014830;28;20029;-77
2021/04/11 01:15:42;;;;;;;4.32;2.45;;;;;;;;;;5025736;28;20039;-76
2021/04/11 01:18:08;;;;;;;3.88;2.30;;;;;;;;;;5014649;28;20034;-75
2021/04/11 01:20:34;;;;;;;5.72;2.70;;;;;;;;;;5016009;28;20026;-77
2021/04/11 01:23:12;;;;;;;4.97;2.35;;;;;;;;;;5033507;28;20543;-75
2021/04/11 01:25:39;;;;;;;3.97;2.47;;;;;;;;;;5026364;28;20038;-76
2021/04/11 01:28:10;;;;;;;3.67;2.70;;;;;;;;;;5014670;28;20030;-77
2021/04/11 01:30:40;;;;;;;5.53;2.30;;;;;;;;;;4995667;28;20505;-75
2021/04/11 01:33:10;;;;;;;4.65;2.63;;;;;;;;;;5034565;28;20040;-76
2021/04/11 01:35:35;;;;;;;4.25;2.42;;;;;;;;;;5021162;28;20052;-75
2021/04/11 01:38:03;;;;;;;4.38;2.40;;;;;;;;;;5032021;28;20033;-75
2021/04/11 01:40:45;;;;;;;3.60;2.03;;;;;;;;;;5017598;28;20034;-75
2021/04/11 01:43:10;;;;;;;5.32;2.47;;;;;;;;;;5025842;28;20144;-75
2021/04/11 01:45:39;;;;;;;5.20;2.70;;;;;;;;;;5021906;28;20053;-75
2021/04/11 01:48:05;;;;;;;5.18;2.33;;;;;;;;;;5034602;28;20029;-77
2021/04/11 01:50:31;;;;;;;6.15;2.65;;;;;;;;;;5031175;28;20041;-75
2021/04/11 01:52:58;;;;;;;5.28;2.47;;;;;;;;;;5032197;28;20033;-75
2021/04/11 01:55:26;;;;;;;2.97;2.10;;;;;;;;;;5020872;28;20037;-75
2021/04/11 01:57:54;;;;;;;5.60;2.38;;;;;;;;;;5029556;28;20033;-75
2021/04/11 02:00:33;;;;;;;4.65;2.28;;;;;;;;;;5026569;28;20018;-75
2021/04/11 02:03:19;;;;;;;5.13;2.50;;;;;;;;;;5024726;28;20030;-75
2021/04/11 02:05:48;;;;;;;4.75;2.35;;;;;;;;;;5019468;28;20029;-75
2021/04/11 02:08:23;;;;;;;5.07;2.35;;;;;;;;;;5032766;28;20040;-76
2021/04/11 02:10:53;;;;;;;4.60;2.42;;;;;;;;;;5024545;28;20029;-76
2021/04/11 02:13:24;;;;;;;5.30;2.53;;;;;;;;;;5032852;28;20060;-75
2021/04/11 02:15:52;;;;;;;4.97;2.30;;;;;;;;;;5019437;28;20026;-75
2021/04/11 02:18:18;;;;;;;4.53;2.35;;;;;;;;;;5013825;28;20058;-75
2021/04/11 02:20:44;;;;;;;4.78;2.78;;;;;;;;;;5013509;28;20053;-76
2021/04/11 02:23:12;;;;;;;4.80;2.38;;;;;;;;;;4996012;28;20030;-76
2021/04/11 02:25:47;;;;;;;5.50;2.38;;;;;;;;;;5016885;28;20036;-75
2021/04/11 02:28:15;;;;;;;4.30;2.10;;;;;;;;;;5014076;28;20048;-75
2021/04/11 02:30:47;;;;;;;5.32;2.55;;;;;;;;;;5012296;28;20057;-75
2021/04/11 02:33:13;;;;;;;5.40;2.47;;;;;;;;;;5021115;28;20116;-75
2021/04/11 02:35:38;;;;;;;4.50;2.30;;;;;;;;;;5024819;28;20113;-75
2021/04/11 02:38:07;;;;;;;4.25;2.08;;;;;;;;;;5019813;28;20036;-76
2021/04/11 02:40:36;;;;;;;4.93;2.30;;;;;;;;;;5032820;28;20080;-76
2021/04/11 02:43:03;;;;;;;3.53;2.25;;;;;;;;;;5032280;28;20049;-75
2021/04/11 02:45:33;;;;;;;3.80;2.03;;;;;;;;;;5020795;28;20076;-75
2021/04/11 02:47:59;;;;;;;3.65;2.33;;;;;;;;;;5016257;28;20024;-75
2021/04/11 02:50:29;;;;;;;3.90;2.10;;;;;;;;;;5023548;28;20411;-77
2021/04/11 02:52:58;;;;;;;4.57;2.30;;;;;;;;;;5011977;28;20461;-75
2021/04/11 02:55:26;;;;;;;2.33;1.80;;;;;;;;;;5027001;28;20025;-75
2021/04/11 02:57:56;;;;;;;3.15;1.98;;;;;;;;;;5014216;28;20033;-76
2021/04/11 03:00:23;;;;;;;3.85;2.13;;;;;;;;;;5024085;28;20052;-75
2021/04/11 03:02:50;;;;;;;4.97;2.08;;;;;;;;;;5026756;28;20052;-76
2021/04/11 03:05:19;;;;;;;3.80;2.20;;;;;;;;;;5024187;28;20439;-76
2021/04/11 03:07:47;;;;;;;3.33;1.95;;;;;;;;;;5026481;28;20033;-75
2021/04/11 03:10:41;;;;;;;3.08;1.60;;;;;;;;;;5032328;28;20025;-75
2021/04/11 03:13:08;;;;;;;2.65;1.80;;;;;;;;;;5032061;28;20029;-76
2021/04/11 03:15:33;;;;;;;3.63;2.17;;;;;;;;;;5028006;28;20461;-76
2021/04/11 03:18:00;;;;;;;2.08;1.60;;;;;;;;;;5031867;28;20116;-75
2021/04/11 03:20:34;;;;;;;1.98;1.60;;;;;;;;;;5029508;28;20025;-75
2021/04/11 03:23:02;;;;;;;4.22;1.77;;;;;;;;;;5028037;28;20018;-75
2021/04/11 03:25:29;;;;;;;2.53;1.75;;;;;;;;;;5013707;28;20061;-75
2021/04/11 03:28:23;;;;;;;4.20;2.00;;;;;;;;;;5021088;28;20506;-75
2021/04/11 03:31:03;;;;;;;2.53;1.92;;;;;;;;;;5030857;28;20021;-75
2021/04/11 03:33:31;;;;;;;3.50;2.30;;;;;;;;;;5032554;28;20112;-75
2021/04/11 03:35:57;;;;;;;2.92;1.88;;;;;;;;;;5011878;28;20022;-75
2021/04/11 03:38:26;;;;;;;3.20;1.70;;;;;;;;;;5023925;28;20079;-76
2021/04/11 03:40:55;;;;;;;3.83;1.90;;;;;;;;;;5019930;28;20057;-76
2021/04/11 03:43:27;;;;;;;3.92;1.83;;;;;;;;;;5011639;28;20545;-76
2021/04/11 03:45:56;;;;;;;4.40;2.10;;;;;;;;;;5026089;28;20034;-75
2021/04/11 03:48:29;;;;;;;3.25;1.60;;;;;;;;;;4994614;28;20049;-75
2021/04/11 03:51:04;;;;;;;2.13;1.65;;;;;;;;;;5030960;28;20041;-75
2021/04/11 03:53:50;;;;;;;2.25;1.50;;;;;;;;;;5016138;28;20029;-75
2021/04/11 03:56:19;;;;;;;3.28;1.88;;;;;;;;;;5017316;28;20041;-76
2021/04/11 03:58:48;;;;;;;4.20;1.58;;;;;;;;;;5028910;28;20033;-75
2021/04/11 04:01:20;;;;;;;2.67;1.67;;;;;;;;;;5023675;28;20018;-75
2021/04/11 04:03:49;;;;;;;3.90;2.10;;;;;;;;;;4996031;28;20029;-75
2021/04/11 04:06:28;;;;;;;3.22;1.70;;;;;;;;;;5020457;28;20037;-76
2021/04/11 04:08:53;;;;;;;2.25;1.58;;;;;;;;;;5015110;28;20040;-76
2021/04/11 04:11:37;;;;;;;4.13;1.92;;;;;;;;;;5015447;28;20025;-75
2021/04/11 04:14:33;;;;;;;3.60;1.65;;;;;;;;;;5023169;28;20033;-75
2021/04/11 04:17:38;;;;;;;3.60;1.67;;;;;;;;;;5035139;28;20048;-76
2021/04/11 04:20:20;;;;;;;3.70;1.83;;;;;;;;;;5034503;28;20470;-75
2021/04/11 04:23:04;;;;;;;2.70;1.88;;;;;;;;;;5021783;28;20151;-75
2021/04/11 04:25:33;;;;;;;2.72;2.08;;;;;;;;;;5031374;28;20120;-75
2021/04/11 04:28:12;;;;;;;3.83;2.00;;;;;;;;;;5026160;28;20072;-75
2021/04/11 04:31:04;;;;;;;2.88;1.70;;;;;;;;;;5028347;28;20113;-75
2021/04/11 04:33:35;;;;;;;4.45;2.25;;;;;;;;;;5022099;28;20041;-75
2021/04/11 04:36:00;;;;;;;;;;;;;;;;;;5018981;28;20029;-76
2021/04/11 04:38:34;;;;;;;3.37;2.00;;;;;;;;;;5024077;28;20396;-75
2021/04/11 04:41:02;;;;;;;2.90;1.88;;;;;;;;;;5015356;28;20276;-77
2021/04/11 04:43:42;;;;;;;3.28;1.90;;;;;;;;;;5013688;28;20062;-75
2021/04/11 04:46:16;;;;;;;2.33;1.83;;;;;;;;;;5023494;28;20041;-76
2021/04/11 04:48:50;;;;;;;3.17;1.98;;;;;;;;;;5024979;28;20556;-76
2021/04/11 04:51:23;;;;;;;5.93;3.55;;;;;;;;;;5014996;28;20034;-75
2021/04/11 04:54:04;;;;;;;9.07;6.90;;;;;;;;;;5017222;28;20453;-76
2021/04/11 04:56:41;;;;;;;14.23;10.50;;;;;;;;;;5026872;28;20029;-77
2021/04/11 04:59:22;;;;;;;9.73;7.43;;;;;;;;;;5031140;28;20029;-76
2021/04/11 05:02:14;;;;;;;5.65;2.72;;;;;;;;;;5021048;28;20032;-76
2021/04/11 05:04:49;;;;;;;2.78;1.90;;;;;;;;;;5025559;28;20033;-75
2021/04/11 05:07:18;;;;;;;3.38;1.77;;;;;;;;;;5027198;28;20036;-74
2021/04/11 05:09:48;;;;;;;2.20;1.60;;;;;;;;;;5031445;28;20037;-77
2021/04/11 05:12:27;;;;;;;4.03;1.90;;;;;;;;;;5017486;28;20548;-75
2021/04/11 05:15:01;;;;;;;2.55;1.80;;;;;;;;;;5022694;28;20041;-74
2021/04/11 05:17:32;;;;;;;4.05;1.45;;;;;;;;;;5015899;28;20049;-75
2021/04/11 05:20:11;;;;;;;2.65;1.77;;;;;;;;;;5026667;28;20036;-75
2021/04/11 05:22:50;;;;;;;2.53;1.75;;;;;;;;;;5014466;28;20448;-76
2021/04/11 05:25:22;;;;;;;2.03;1.63;;;;;;;;;;5014261;28;20100;-75
2021/04/11 05:28:05;;;;;;;2.55;1.75;;;;;;;;;;5014264;28;20052;-75
2021/04/11 05:30:59;;;;;;;1.83;1.60;;;;;;;;;;5014424;28;20025;-76
2021/04/11 05:33:25;;;;;;;2.30;1.60;;;;;;;;;;5013154;28;20030;-76
2021/04/11 05:36:00;;;;;;;3.50;1.80;;;;;;;;;;5027445;28;20519;-76
2021/04/11 05:38:55;;;;;;;2.60;1.85;;;;;;;;;;5019086;28;20034;-76
2021/04/11 05:41:47;;;;;;;2.65;1.73;;;;;;;;;;5023188;28;20029;-76
2021/04/11 05:44:23;;;;;;;2.67;1.80;;;;;;;;;;4951487;29;20122;-77
2021/04/11 05:46:57;;;;;;;3.00;1.73;;;;;;;;;;4938181;29;20064;-75
2021/04/11 05:49:54;;;;;;;2.45;1.77;;;;;;;;;;4938125;29;20039;-75
2021/04/11 05:52:27;;;;;;;3.58;1.90;;;;;;;;;;4936086;29;20148;-76
2021/04/11 05:54:55;;;;;;;3.92;1.83;;;;;;;;;;4950498;29;20402;-76
2021/04/11 05:57:30;;;;;;;3.90;2.08;;;;;;;;;;4934371;29;20036;-76
2021/04/11 06:00:08;;;;;;;2.70;1.85;;;;;;;;;;4934344;29;20506;-76
2021/04/11 06:02:34;;;;;;;2.67;1.70;;;;;;;;;;4933790;29;20476;-75
2021/04/11 06:05:07;;;;;;;3.63;1.70;;;;;;;;;;4938147;29;20081;-75
2021/04/11 06:07:46;;;;;;;3.65;1.83;;;;;;;;;;4933522;29;20043;-76
2021/04/11 06:10:28;;;;;;;2.70;1.80;;;;;;;;;;4941066;29;20523;-77
2021/04/11 06:13:08;;;;;;;4.85;2.00;;;;;;;;;;4939823;29;20031;-75
2021/04/11 06:15:35;;;;;;;2.70;1.85;;;;;;;;;;4948378;29;20039;-76
2021/04/11 06:18:05;;;;;;;2.95;1.80;;;;;;;;;;4933495;29;20035;-75
2021/04/11 06:20:31;;;;;;;2.45;1.90;;;;;;;;;;4938939;28;20088;-76
2021/04/11 06:23:11;;;;;;;5.00;2.00;;;;;;;;;;5018108;28;20432;-75
2021/04/11 06:25:50;;;;;;;1.85;1.60;;;;;;;;;;5026970;28;20029;-76
2021/04/11 06:28:29;;;;;;;1.95;1.70;;;;;;;;;;5015092;28;20052;-76
2021/04/11 06:31:04;;;;;;;2.03;1.80;;;;;;;;;;5017316;28;20114;-77
2021/04/11 06:33:35;;;;;;;3.65;1.92;;;;;;;;;;5031982;28;20033;-75
2021/04/11 06:36:06;;;;;;;2.10;1.75;;;;;;;;;;5018282;28;21352;-75
2021/04/11 06:38:39;;;;;;;3.00;1.70;;;;;;;;;;5016257;28;20398;-77
2021/04/11 06:41:42;;;;;;;2.70;1.88;;;;;;;;;;4995073;28;20405;-77
2021/04/11 06:44:27;;;;;;;2.25;1.45;;;;;;;;;;5024009;28;20505;-76
2021/04/11 06:47:16;;;;;;;2.97;1.90;;;;;;;;;;5004955;28;20445;-76
2021/04/11 06:49:57;;;;;;;2.95;1.50;;;;;;;;;;5005122;28;20055;-76
2021/04/11 06:52:46;;;;;;;3.50;1.80;;;;;;;;;;5032364;28;20025;-78
2021/04/11 06:55:33;;;;;;;2.25;1.55;;;;;;;;;;5027762;28;20068;-76
2021/04/11 06:58:25;;;;;;;2.25;1.70;;;;;;;;;;5023532;28;20397;-75
2021/04/11 07:01:19;;;;;;;1.98;1.58;;;;;;;;;;5013611;28;20021;-78
2021/04/11 07:04:08;;;;;;;2.20;1.23;;;;;;;;;;5019655;28;20512;-76
2021/04/11 07:07:25;;;;;;;4.65;1.58;;;;;;;;;;5023561;28;20026;-75
2021/04/11 07:10:28;;;;;;;2.28;1.65;;;;;;;;;;4967722;28;20379;-76
2021/04/11 07:12:56;;;;;;;3.53;1.50;;;;;;;;;;5012866;28;20029;-77
2021/04/11 07:15:42;;;;;;;2.95;1.13;;;;;;;;;;5018587;28;20021;-78
2021/04/11 07:18:49;;;;;;;2.78;1.13;;;;;;;;;;5011576;28;20029;-76
2021/04/11 07:21:48;;;;;;;1.35;1.00;;;;;;;;;;5013416;28;20029;-76
2021/04/11 07:24:26;;;;;;;2.67;1.20;;;;;;;;;;5031321;28;20105;-76
2021/04/11 07:27:03;;;;;;;0.90;0.80;;;;;;;;;;5017645;28;20037;-77
2021/04/11 07:29:47;;;;;;;1.15;0.70;;;;;;;;;;5014236;28;20048;-76
2021/04/11 07:32:28;;;;;;;1.63;0.80;;;;;;;;;;5017333;28;20042;-75
2021/04/11 07:35:12;;;;;;;1.73;1.00;;;;;;;;;;5003775;28;20414;-75
2021/04/11 07:38:04;;;;;;;1.30;0.75;;;;;;;;;;5019679;28;20034;-76
2021/04/11 07:41:04;;;;;;;1.02;0.75;;;;;;;;;;5011148;28;20418;-76
2021/04/11 07:44:16;;;;;;;1.48;1.20;;;;;;;;;;5028211;28;20492;-76
2021/04/11 07:46:59;;;;;;;3.17;0.93;;;;;;;;;;5011476;28;20045;-78
2021/04/11 07:49:46;;;;;;;4.30;1.60;;;;;;;;;;5007324;28;20025;-76
2021/04/11 07:52:30;;;;;;;1.38;0.80;;;;;;;;;;5030582;28;20038;-77
2021/04/11 07:55:26;;;;;;;2.80;0.90;;;;;;;;;;5025268;28;20054;-76
2021/04/11 07:58:29;;;;;;;1.50;0.80;;;;;;;;;;5023489;28;20494;-78
2021/04/11 08:01:06;;;;;;;1.00;0.70;;;;;;;;;;5015732;28;20052;-77
2021/04/11 08:03:44;;;;;;;1.05;0.88;;;;;;;;;;5017994;28;20471;-79
2021/04/11 08:06:45;;;;;;;1.00;0.70;;;;;;;;;;5017574;28;20438;-76
2021/04/11 08:09:29;;;;;;;;;;;;;;;;;;5014265;28;20296;-76
2021/04/11 08:12:27;;;;;;;0.90;0.90;;;;;;;;;;5018670;28;19952;-76
2021/04/11 08:15:10;;;;;;;2.40;0.90;;;;;;;;;;4999529;28;20104;-77
2021/04/11 08:18:03;;;;;;;0.60;0.60;;;;;;;;;;5016601;28;20112;-77
2021/04/11 08:20:43;;;;;;;1.98;0.77;;;;;;;;;;5018349;28;20021;-76
2021/04/11 08:23:33;;;;;;;4.95;1.17;;;;;;;;;;5025042;28;20025;-79
2021/04/11 08:26:18;;;;;;;1.27;0.88;;;;;;;;;;5022230;28;20053;-80
2021/04/11 08:29:15;;;;;;;2.78;0.93;;;;;;;;;;5018167;28;21226;-78
2021/04/11 08:31:56;;;;;;;6.80;1.38;;;;;;;;;;5024620;28;20048;-79
2021/04/11 08:34:47;;;;;;;4.00;1.10;;;;;;;;;;5006118;28;20091;-78
2021/04/11 08:37:35;;;;;;;2.50;0.93;;;;;;;;;;5020114;28;20033;-79
2021/04/11 08:40:03;;;;;;;2.35;0.88;;;;;;;;;;5021424;28;20025;-79
2021/04/11 08:42:40;;;;;;;1.75;0.80;;;;;;;;;;5019003;28;20041;-80
2021/04/11 08:45:31;;;;;;;1.90;1.00;;;;;;;;;;5014698;28;20022;-79
2021/04/11 08:48:06;;;;;;;1.65;1.00;;;;;;;;;;5020810;28;20097;-79
2021/04/11 08:50:37;;;;;;;3.15;0.90;;;;;;;;;;5029647;28;20028;-79
2021/04/11 08:53:08;;;;;;;6.03;4.33;;;;;;;;;;5026240;28;20417;-78
2021/04/11 08:55:55;;;;;;;;;;;;;;;;;;5015853;28;20272;-77
2021/04/11 08:58:30;;;;;;;2.10;1.60;;;;;;;;;;5017560;28;19921;-78
2021/04/11 09:01:29;;;;;;;1.20;1.10;;;;;;;;;;5020122;28;20517;-78
2021/04/11 09:04:14;;;;;;;1.77;0.60;;;;;;;;;;5021380;28;20037;-75
2021/04/11 09:06:48;;;;;;;1.15;0.60;;;;;;;;;;5013906;28;20125;-76
2021/04/11 09:09:30;;;;;;;1.17;0.45;;;;;;;;;;5025373;28;20030;-78
2021/04/11 09:12:24;;;;;;;0.85;0.50;;;;;;;;;;5023421;28;20030;-79
2021/04/11 09:14:58;;;;;;;1.25;0.55;;;;;;;;;;5015371;28;20026;-77
2021/04/11 09:17:53;;;;;;;1.40;0.55;;;;;;;;;;5001251;28;20444;-77
2021/04/11 09:20:45;;;;;;;1.10;0.85;;;;;;;;;;5017199;28;20026;-79
2021/04/11 09:23:23;;;;;;;1.20;0.80;;;;;;;;;;5020887;28;20080;-77
2021/04/11 09:26:17;;;;;;;1.13;0.95;;;;;;;;;;5021864;28;20024;-78
2021/04/11 09:29:21;;;;;;;28.75;19.02;;;;;;;;;;5013101;28;20042;-77
2021/04/11 09:32:25;;;;;;;10.35;8.07;;;;;;;;;;4950047;29;20044;-77
2021/04/11 09:35:15;;;;;;;1.00;0.90;;;;;;;;;;4953565;29;20042;-78
2021/04/11 09:38:17;;;;;;;2.80;2.50;;;;;;;;;;4942825;29;20027;-80
2021/04/11 09:40:49;;;;;;;0.57;0.52;;;;;;;;;;4937551;29;20122;-78
2021/04/11 09:43:14;;;;;;;0.73;0.70;;;;;;;;;;4965334;28;20069;-77
2021/04/11 09:46:03;;;;;;;0.80;0.60;;;;;;;;;;4989847;28;20038;-78
2021/04/11 09:49:04;;;;;;;0.77;0.60;;;;;;;;;;4977576;28;20030;-78
2021/04/11 09:52:08;;;;;;;1.88;1.60;;;;;;;;;;4981551;28;20565;-80
2021/04/11 09:54:49;;;;;;;1.58;1.00;;;;;;;;;;4957284;28;20035;-78
2021/04/11 09:57:35;;;;;;;4.40;1.27;;;;;;;;;;4962395;28;20041;-76
2021/04/11 10:00:07;;;;;;;2.78;1.08;;;;;;;;;;4962409;28;20066;-78
2021/04/11 10:02:38;;;;;;;2.30;0.70;;;;;;;;;;4981972;28;20038;-79
2021/04/11 10:05:13;;;;;;;0.70;0.50;;;;;;;;;;5005395;28;20037;-78
2021/04/11 10:07:54;;;;;;;0.82;0.60;;;;;;;;;;5010535;28;20585;-79
2021/04/11 10:10:39;;;;;;;3.35;1.00;;;;;;;;;;5004576;28;20034;-76
2021/04/11 10:13:19;;;;;;;11.65;8.63;;;;;;;;;;4997185;28;20032;-76
2021/04/11 10:16:00;;;;;;;14.05;10.55;;;;;;;;;;5003195;28;20041;-76
2021/04/11 10:18:50;;;;;;;2.70;2.43;;;;;;;;;;4993307;28;20414;-79
2021/04/11 10:21:52;;;;;;;2.17;1.85;;;;;;;;;;5004313;28;20030;-77
2021/04/11 10:24:45;;;;;;;1.65;0.70;;;;;;;;;;5000121;28;20129;-77
2021/04/11 10:27:30;;;;;;;0.50;0.50;;;;;;;;;;5009035;28;20114;-79
2021/04/11 10:29:58;;;;;;;1.85;0.50;;;;;;;;;;5009778;28;20529;-79
2021/04/11 10:33:06;;;;;;;0.55;0.55;;;;;;;;;;5042253;28;20412;-79
2021/04/11 10:35:45;;;;;;;0.70;0.70;;;;;;;;;;5035855;28;20018;-79
2021/04/11 10:38:17;;;;;;;0.52;0.50;;;;;;;;;;5039514;28;20043;-78
2021/04/11 10:41:15;;;;;;;5.03;0.60;;;;;;;;;;5040560;28;20055;-81
2021/04/11 10:43:49;;;;;;;2.05;0.68;;;;;;;;;;5050241;28;20045;-76
2021/04/11 10:46:21;;;;;;;1.13;0.68;;;;;;;;;;5045842;28;20021;-78
2021/04/11 10:49:08;;;;;;;4.80;2.75;;;;;;;;;;5032771;28;20493;-77
2021/04/11 10:51:36;;;;;;;2.55;0.75;;;;;;;;;;5035123;28;20033;-79
2021/04/11 10:54:27;;;;;;;4.18;0.90;;;;;;;;;;5032330;28;20606;-78
2021/04/11 10:57:28;;;;;;;3.53;1.65;;;;;;;;;;5031679;28;20488;-79
2021/04/11 11:00:23;;;;;;;1.52;0.75;;;;;;;;;;5040168;28;20025;-77
2021/04/11 11:02:48;;;;;;;3.90;2.95;;;;;;;;;;5050302;28;20125;-78
2021/04/11 11:05:38;;;;;;;0.75;0.50;;;;;;;;;;5035818;28;20536;-77
2021/04/11 11:08:27;;;;;;;0.68;0.50;;;;;;;;;;5038688;28;20029;-79
2021/04/11 11:11:02;;;;;;;1.80;1.45;;;;;;;;;;5047343;28;20028;-79
2021/04/11 11:14:15;;;;;;;1.98;0.93;;;;;;;;;;5039958;28;20047;-77
2021/04/11 11:16:58;;;;;;;1.85;0.80;;;;;;;;;;4964691;28;20031;-80
2021/04/11 11:19:45;;;;;;;0.32;0.32;;;;;;;;;;4968467;28;20439;-78
2021/04/11 11:22:33;;;;;;;0.90;0.60;;;;;;;;;;4966702;28;20105;-78
2021/04/11 11:25:19;;;;;;;1.30;1.20;;;;;;;;;;4968039;28;20054;-80
2021/04/11 11:27:59;;;;;;;22.83;18.02;;;;;;;;;;4971774;28;20117;-77
2021/04/11 11:30:50;;;;;;;2.15;0.60;;;;;;;;;;4962717;28;20034;-78
2021/04/11 11:33:24;;;;;;;2.42;0.80;;;;;;;;;;4969189;28;20046;-78
2021/04/11 11:36:08;;;;;;;1.48;0.50;;;;;;;;;;4966528;28;20038;-78
2021/04/11 11:39:02;;;;;;;1.55;0.70;;;;;;;;;;4968328;28;20043;-78
2021/04/11 11:41:54;;;;;;;2.58;2.00;;;;;;;;;;4954034;28;20042;-80
2021/04/11 11:44:28;;;;;;;1.75;1.13;;;;;;;;;;4965346;28;20083;-78
2021/04/11 11:47:24;;;;;;;3.53;3.22;;;;;;;;;;4970197;28;20101;-77
2021/04/11 11:50:00;;;;;;;4.05;2.72;;;;;;;;;;4957837;28;20050;-79
2021/04/11 11:52:44;;;;;;;1.95;0.60;;;;;;;;;;4985127;28;20052;-76
2021/04/11 11:55:17;;;;;;;3.63;1.92;;;;;;;;;;5034104;28;20035;-76
2021/04/11 11:57:55;;;;;;;1.83;0.93;;;;;;;;;;5040870;28;20044;-78
2021/04/11 12:00:27;;;;;;;1.60;0.43;;;;;;;;;;5033332;28;20033;-79
2021/04/11 12:03:23;;;;;;;2.42;0.77;;;;;;;;;;5034247;28;20481;-79
2021/04/11 12:06:04;;;;;;;2.38;0.82;;;;;;;;;;5036207;28;20576;-77
2021/04/11 12:09:00;;;;;;;4.88;4.25;;;;;;;;;;5047890;28;20029;-79
2021/04/11 12:11:32;;;;;;;1.35;0.80;;;;;;;;;;5037829;28;20124;-79
2021/04/11 12:14:03;;;;;;;1.30;1.02;;;;;;;;;;5046740;28;20100;-78
2021/04/11 12:16:44;;;;;;;1.65;1.10;;;;;;;;;;5039000;28;20040;-78
2021/04/11 12:19:27;;;;;;;0.88;0.88;;;;;;;;;;5045849;28;20025;-76
2021/04/11 12:21:59;;;;;;;1.23;0.70;;;;;;;;;;5031927;28;20034;-76
2021/04/11 12:24:27;;;;;;;1.35;0.90;;;;;;;;;;5031570;28;20033;-76
2021/04/11 12:26:58;;;;;;;1.00;0.80;;;;;;;;;;5036218;28;20029;-78
2021/04/11 12:29:30;;;;;;;2.95;1.30;;;;;;;;;;5036646;28;20056;-77
2021/04/11 12:31:58;;;;;;;2.58;1.00;;;;;;;;;;5038562;28;20520;-79
2021/04/11 12:34:59;;;;;;;1.20;1.10;;;;;;;;;;5041857;28;20526;-78
2021/04/11 12:37:33;;;;;;;1.55;0.80;;;;;;;;;;5034504;28;20041;-77
2021/04/11 12:40:14;;;;;;;1.63;0.88;;;;;;;;;;5040955;28;20037;-78
2021/04/11 12:42:51;;;;;;;2.30;0.60;;;;;;;;;;5031717;28;20058;-77
2021/04/11 12:46:13;;;;;;;3.25;1.38;;;;;;;;;;5020345;28;20088;-78
2021/04/11 12:49:05;;;;;;;6.15;1.80;;;;;;;;;;4949642;29;20118;-78
2021/04/11 12:51:43;;;;;;;1.05;0.73;;;;;;;;;;4938916;28;20451;-76
2021/04/11 12:54:46;;;;;;;1.85;0.80;;;;;;;;;;4939939;29;20050;-80
2021/04/11 12:57:21;;;;;;;1.20;0.70;;;;;;;;;;4944014;29;20447;-76
2021/04/11 13:00:07;;;;;;;1.40;0.85;;;;;;;;;;4945441;28;20540;-78
2021/04/11 13:02:49;;;;;;;1.13;0.75;;;;;;;;;;4946277;29;20035;-78
2021/04/11 13:05:20;;;;;;;3.72;1.10;;;;;;;;;;4948260;29;20059;-76
2021/04/11 13:07:53;;;;;;;;;;;;;;;;;;4946135;29;20427;-75
2021/04/11 13:10:27;;;;;;;1.08;0.70;;;;;;;;;;4942425;29;20005;-79
2021/04/11 13:13:11;;;;;;;0.98;0.80;;;;;;;;;;4939296;29;20539;-76
2021/04/11 13:16:04;;;;;;;1.35;1.13;;;;;;;;;;4936260;29;20039;-77
2021/04/11 13:19:05;;;;;;;6.82;1.88;;;;;;;;;;4956883;28;20064;-77
2021/04/11 13:21:49;;;;;;;3.50;1.58;;;;;;;;;;5023564;28;20076;-78
2021/04/11 13:24:35;;;;;;;6.63;5.43;;;;;;;;;;5022123;28;20041;-79
2021/04/11 13:27:09;;;;;;;16.10;13.15;;;;;;;;;;5021470;28;20520;-78
2021/04/11 13:29:51;;;;;;;14.25;11.18;;;;;;;;;;5021965;28;20025;-77
2021/04/11 13:32:54;;;;;;;2.90;1.70;;;;;;;;;;5019803;28;20025;-78
2021/04/11 13:35:43;;;;;;;5.43;3.83;;;;;;;;;;5019693;28;20371;-77
2021/04/11 13:38:23;;;;;;;7.97;7.18;;;;;;;;;;5007825;28;20025;-78
2021/04/11 13:40:49;;;;;;;1.67;1.58;;;;;;;;;;5029842;28;20398;-77
2021/04/11 13:43:29;;;;;;;3.00;2.67;;;;;;;;;;5028685;28;20475;-77
2021/04/11 13:46:10;;;;;;;2.25;1.95;;;;;;;;;;5023596;28;20029;-76
2021/04/11 13:48:57;;;;;;;2.58;2.10;;;;;;;;;;5027246;28;20056;-79
2021/04/11 13:51:47;;;;;;;0.85;0.70;;;;;;;;;;5022882;28;20017;-77
2021/04/11 13:54:27;;;;;;;1.75;0.98;;;;;;;;;;5019029;28;20029;-76
2021/04/11 13:57:04;;;;;;;0.70;0.70;;;;;;;;;;5027352;28;20095;-75
2021/04/11 13:59:38;;;;;;;1.75;1.02;;;;;;;;;;5016651;28;20292;-76
2021/04/11 14:02:43;;;;;;;1.90;1.30;;;;;;;;;;5017486;28;20036;-77
2021/04/11 14:05:09;;;;;;;1.38;0.88;;;;;;;;;;5002046;28;20068;-78
2021/04/11 14:07:46;;;;;;;0.98;0.80;;;;;;;;;;5022105;28;20053;-78
2021/04/11 14:10:21;;;;;;;1.42;0.70;;;;;;;;;;5021446;28;20044;-75
2021/04/11 14:13:07;;;;;;;0.85;0.77;;;;;;;;;;5014101;28;20405;-75
2021/04/11 14:15:41;;;;;;;3.10;0.80;;;;;;;;;;5026165;28;20437;-77
2021/04/11 14:18:18;;;;;;;9.73;8.75;;;;;;;;;;5022703;28;20037;-78
2021/04/11 14:20:58;;;;;;;4.85;4.13;;;;;;;;;;5020620;28;20434;-78
2021/04/11 14:23:55;;;;;;;2.40;2.20;;;;;;;;;;5026344;28;20036;-75
2021/04/11 14:26:24;;;;;;;3.70;2.13;;;;;;;;;;5027153;28;20049;-77
2021/04/11 14:28:53;;;;;;;2.15;1.48;;;;;;;;;;5025133;28;20104;-77
2021/04/11 14:31:33;;;;;;;4.88;2.95;;;;;;;;;;5023855;28;20033;-78
2021/04/11 14:34:36;;;;;;;1.63;1.50;;;;;;;;;;5028814;28;20515;-75
2021/04/11 14:37:29;;;;;;;3.50;2.92;;;;;;;;;;4972100;28;20048;-75
2021/04/11 14:40:17;;;;;;;28.52;25.65;;;;;;;;;;5012435;28;20037;-79
2021/04/11 14:43:04;;;;;;;2.50;1.42;;;;;;;;;;5028431;28;20065;-75
2021/04/11 14:45:47;;;;;;;3.20;0.90;;;;;;;;;;5030157;28;20057;-75
2021/04/11 14:48:16;;;;;;;2.38;1.60;;;;;;;;;;5033099;28;20417;-78
2021/04/11 14:50:43;;;;;;;3.80;2.30;;;;;;;;;;5026932;28;20039;-75
2021/04/11 14:53:36;;;;;;;3.05;2.40;;;;;;;;;;5024829;28;20096;-75
2021/04/11 14:56:38;;;;;;;1.98;1.77;;;;;;;;;;5031620;28;20112;-75
2021/04/11 14:59:21;;;;;;;2.90;1.90;;;;;;;;;;4947429;29;20070;-76
2021/04/11 15:02:04;;;;;;;1.52;1.15;;;;;;;;;;4948930;28;20031;-78
2021/04/11 15:04:44;;;;;;;2.40;1.30;;;;;;;;;;4943462;29;20055;-76
2021/04/11 15:07:46;;;;;;;2.60;1.98;;;;;;;;;;4936464;29;20108;-75
2021/04/11 15:10:32;;;;;;;1.83;1.33;;;;;;;;;;4942025;28;20043;-75
2021/04/11 15:13:28;;;;;;;4.35;2.90;;;;;;;;;;4942822;29;20035;-77
2021/04/11 15:16:05;;;;;;;3.70;1.75;;;;;;;;;;4934545;29;20044;-75
2021/04/11 15:18:52;;;;;;;2.90;1.33;;;;;;;;;;4921039;29;20023;-78
2021/04/11 15:21:25;;;;;;;1.00;0.90;;;;;;;;;;4926706;29;20111;-75
2021/04/11 15:24:00;;;;;;;3.10;1.55;;;;;;;;;;4918437;29;20036;-76
2021/04/11 15:26:44;;;;;;;3.10;1.88;;;;;;;;;;4919178;29;20108;-75
2021/04/11 15:29:22;;;;;;;4.95;1.30;;;;;;;;;;4916082;29;20064;-76
2021/04/11 15:31:55;;;;;;;4.45;1.05;;;;;;;;;;4915979;29;20029;-76
2021/04/11 15:34:36;;;;;;;5.03;1.45;;;;;;;;;;4960946;28;20451;-75
2021/04/11 15:37:26;;;;;;;2.22;1.05;;;;;;;;;;4970706;28;20039;-77
2021/04/11 15:40:16;;;;;;;2.35;1.20;;;;;;;;;;4965142;28;20459;-75
2021/04/11 15:43:27;;;;;;;2.92;1.33;;;;;;;;;;4969423;28;20149;-78
2021/04/11 15:46:04;;;;;;;2.10;1.30;;;;;;;;;;4972485;28;20446;-76
2021/04/11 15:48:39;;;;;;;3.40;1.88;;;;;;;;;;4963103;28;20282;-77
2021/04/11 15:51:04;;;;;;;6.65;5.15;;;;;;;;;;4963406;28;20500;-75
2021/04/11 15:53:56;;;;;;;1.98;1.25;;;;;;;;;;4991785;28;20058;-75
2021/04/11 15:56:32;;;;;;;2.55;1.33;;;;;;;;;;4978877;28;20491;-76